ADDS METAR Data INFO
IDs: Format: Raw Decoded Include TAF

Data at: 2219 UTC 22 Aug 2017

KERV 222215Z AUTO 19008KT 10SM SCT065 34/20 A3003 RMK AO2 T03380202
KERV 222155Z AUTO 17006KT 10SM BKN065 33/21 A3004 RMK AO2 T03310205
KERV 222135Z AUTO 13010KT 10SM SCT065 BKN080 33/20 A3004 RMK AO2 T03320200
KERV 222115Z AUTO 14004KT 10SM SCT065 SCT080 34/20 A3005 RMK AO2 T03380201
KERV 222055Z AUTO 13006KT 10SM SCT065 SCT080 35/21 A3005 RMK AO2 T03450205
KERV 222035Z AUTO 17005KT 10SM CLR 34/19 A3006 RMK AO2 T03410194
KERV 222015Z AUTO 11007KT 10SM SCT060 34/20 A3007 RMK AO2 T03430198
KERV 221955Z AUTO 12006G09KT 10SM SCT060 34/20 A3008 RMK AO2 T03380197
KERV 221935Z AUTO 15003KT 10SM SCT055 33/19 A3009 RMK AO2 T03320188
KERV 221915Z AUTO 00000KT 10SM SCT055 33/21 A3009 RMK AO2 T03310208
KERV 221855Z AUTO 00000KT 10SM CLR 33/20 A3011 RMK AO2 T03310201
KERV 221835Z AUTO 17003KT 10SM CLR 33/21 A3011 RMK AO2 T03300212
KERV 221815Z AUTO 15003KT 10SM CLR 32/21 A3012 RMK AO2 T03170206
KERV 221755Z AUTO 15006KT 10SM SCT042 31/21 A3013 RMK AO2 T03090213 10317 20220
KERV 221735Z AUTO 14006KT 10SM SCT040 32/23 A3013 RMK AO2 T03170225
KERV 221715Z AUTO 19003KT 10SM CLR 30/21 A3013 RMK AO2 T03000209
KERV 221655Z AUTO 15006KT 10SM CLR 30/21 A3013 RMK AO2 T02950214
KERV 221635Z AUTO 17005KT 10SM SCT030 29/22 A3013 RMK AO2 T02920219
KERV 221615Z AUTO 13004KT 10SM SCT030 28/22 A3014 RMK AO2 T02800219
KERV 221555Z AUTO 22004KT 10SM CLR 28/22 A3013 RMK AO2 T02790217
KERV 221535Z AUTO 20006KT 10SM CLR 28/22 A3013 RMK AO2 T02750222
KERV 221515Z AUTO 19005KT 10SM CLR 27/22 A3012 RMK AO2 T02730224
KERV 221455Z AUTO 18006KT 10SM SCT020 26/22 A3012 RMK AO2 T02590224
KERV 221435Z AUTO 22007KT 10SM BKN018 25/22 A3012 RMK AO2 T02470220
KERV 221415Z AUTO 21007KT 10SM BKN012 BKN019 25/23 A3012 RMK AO2 T02540227
KERV 221355Z AUTO 17005KT 10SM BKN012 25/23 A3012 RMK AO2 T02470227
KERV 221335Z AUTO 17003KT 10SM BKN014 23/22 A3012 RMK AO2 T02330218
KERV 221315Z AUTO 17003KT 10SM BKN014 23/22 A3011 RMK AO2 T02330220
KERV 221255Z AUTO 15004KT 10SM SCT014 22/21 A3011 RMK AO2 T02230213
KERV 221235Z AUTO 00000KT 10SM SCT022 22/21 A3010 RMK AO2 T02200208
KERV 221215Z AUTO 15003KT 10SM BKN020 22/21 A3010 RMK AO2 T02200210
KERV 221155Z AUTO 15003KT 10SM SCT020 22/21 A3010 RMK AO2 T02200209 10261 20220
KERV 221135Z AUTO 15004KT 10SM SCT018 22/21 A3009 RMK AO2 T02200208
KERV 221115Z AUTO 14003KT 10SM SCT018 22/21 A3009 RMK AO2 T02200208
KERV 221055Z AUTO 14003KT 10SM BKN018 22/21 A3009 RMK AO2 T02200208
KERV 221035Z AUTO 00000KT 10SM CLR 22/21 A3009 RMK AO2 T02200207
KERV 221015Z AUTO 00000KT 10SM SCT016 22/21 A3009 RMK AO2 T02200206
KERV 220955Z AUTO 15004KT 10SM SCT016 22/21 A3009 RMK AO2 T02200205
KERV 220935Z AUTO 17004KT 10SM CLR 22/21 A3009 RMK AO2 T02200205
KERV 220915Z AUTO 16004KT 10SM CLR 23/21 A3010 RMK AO2 T02260208
KERV 220855Z AUTO 14004KT 10SM CLR 23/21 A3011 RMK AO2 T02330211
KERV 220835Z AUTO 15004KT 10SM CLR 23/21 A3011 RMK AO2 T02330210
KERV 220815Z AUTO 12004KT 10SM CLR 23/21 A3011 RMK AO2 T02340210
KERV 220755Z AUTO 15005KT 10SM CLR 25/22 A3011 RMK AO2 T02470220
KERV 220735Z AUTO 14006KT 10SM CLR 25/22 A3012 RMK AO2 T02470220
KERV 220715Z AUTO 15006G09KT 10SM CLR 25/22 A3013 RMK AO2 T02470215
KERV 220655Z AUTO 14008KT 10SM CLR 25/22 A3013 RMK AO2 T02470216
KERV 220635Z AUTO 13004KT 10SM CLR 26/22 A3014 RMK AO2 T02550219
KERV 220615Z AUTO 14005KT 10SM CLR 26/22 A3014 RMK AO2 T02590220
KERV 220555Z AUTO 15007KT 10SM CLR 26/22 A3014 RMK AO2 T02610217 10331 20247 403310220
KERV 220535Z AUTO 15007KT 10SM CLR 26/22 A3014 RMK AO2 T02610218
KERV 220515Z AUTO 00000KT 10SM CLR 25/21 A3014 RMK AO2 T02500205
KERV 220455Z AUTO 00000KT 10SM SCT055 SCT065 26/21 A3014 RMK AO2 T02610207
KERV 220435Z AUTO 00000KT 10SM SCT055 SCT075 SCT100 25/20 A3013 RMK AO2 T02470203
KERV 220415Z AUTO 00000KT 10SM BKN055 OVC080 26/21 A3013 RMK AO2 LTG DSNT W T02550205
KERV 220355Z AUTO 00000KT 10SM SCT055 BKN065 OVC075 26/20 A3012 RMK AO2 T02550203
KERV 220335Z AUTO 00000KT 10SM SCT060 BKN075 26/20 A3011 RMK AO2 T02610203
KERV 220315Z AUTO 00000KT 10SM SCT075 26/20 A3010 RMK AO2 T02550201
KERV 220255Z AUTO 00000KT 10SM CLR 26/20 A3009 RMK AO2 T02610195
KERV 220235Z AUTO 00000KT 10SM CLR 28/20 A3008 RMK AO2 T02750198
KERV 220215Z AUTO 00000KT 10SM CLR 27/20 A3008 RMK AO2 T02680197
KERV 220155Z AUTO 13003KT 10SM CLR 28/19 A3007 RMK AO2 T02790192
KERV 220135Z AUTO 12003KT 10SM CLR 28/19 A3006 RMK AO2 T02820192
KERV 220115Z AUTO 11003KT 10SM CLR 29/20 A3005 RMK AO2 T02880195
KERV 220055Z AUTO 15003KT 10SM SCT060 30/19 A3005 RMK AO2 T02980191
KERV 220035Z AUTO 14006KT 10SM SCT060 32/20 A3005 RMK AO2 T03170196
KERV 220015Z AUTO 14004KT 10SM SCT060 32/19 A3005 RMK AO2 T03190194
KERV 212355Z AUTO 11006KT 10SM SCT060 BKN070 33/20 A3005 RMK AO2 T03310204 10331 20290
KERV 212335Z AUTO 16005KT 10SM SCT070 33/20 A3005 RMK AO2 T03310201
KERV 212315Z AUTO 20005KT 10SM SCT060 SCT070 33/20 A3006 RMK AO2 T03310201
KERV 212255Z AUTO 22004KT 10SM SCT060 33/20 A3006 RMK AO2 T03310197
KERV 212235Z AUTO 19008KT 10SM SCT060 33/19 A3007 RMK AO2 T03310193
KERV 212215Z AUTO 20009KT 10SM SCT060 33/20 A3007 RMK AO2 T03310198
KERV 212155Z AUTO 13005KT 10SM SCT060 33/20 A3008 RMK AO2 T03310200
KERV 212135Z AUTO 15007KT 10SM SCT060 33/21 A3008 RMK AO2 T03310207
KERV 212115Z AUTO 12005G14KT 10SM CLR 32/20 A3009 RMK AO2 T03230199
KERV 212055Z AUTO 17008KT 10SM SCT050 32/20 A3009 RMK AO2 T03180200
KERV 212035Z AUTO 14004KT 10SM SCT050 33/21 A3010 RMK AO2 T03310213
KERV 212015Z AUTO 18007KT 160V230 10SM SCT046 32/21 A3011 RMK AO2 T03160211
KERV 211955Z AUTO 19008KT 10SM SCT046 31/21 A3011 RMK AO2 T03080207
KERV 211935Z AUTO 16009KT 100V180 10SM SCT044 31/21 A3012 RMK AO2 T03100213
KERV 211915Z AUTO 16011KT 10SM SCT044 30/21 A3012 RMK AO2 T03030207
KERV 211855Z AUTO 16008KT 10SM CLR 30/21 A3012 RMK AO2 T02960205
KERV 211835Z AUTO 15008KT 10SM SCT041 29/21 A3012 RMK AO2 T02900207
KERV 211815Z AUTO 15008KT 10SM SCT041 29/21 A3013 RMK AO2 T02900210
KERV 211755Z AUTO 13007KT 10SM SCT039 29/21 A3013 RMK AO2 T02900206 10303 20220
KERV 211735Z AUTO 19009KT 10SM SCT039 SCT044 29/21 A3013 RMK AO2 T02910210
KERV 211715Z AUTO 17006KT 10SM SCT039 29/21 A3013 RMK AO2 T02900212
KERV 211655Z AUTO 15008KT 10SM BKN037 BKN043 30/22 A3013 RMK AO2 T02970216
KERV 211635Z AUTO 19007KT 10SM BKN035 BKN041 28/22 A3014 RMK AO2 T02830215
KERV 211615Z AUTO 19007KT 10SM SCT033 28/22 A3014 RMK AO2 T02760215
KERV 211555Z AUTO 17006KT 10SM SCT029 28/22 A3014 RMK AO2 T02750218
KERV 211535Z AUTO 18007KT 10SM SCT023 28/22 A3013 RMK AO2 T02750217
KERV 211515Z AUTO 14005KT 10SM BKN021 27/22 A3013 RMK AO2 T02710224
KERV 211455Z AUTO 21007KT 10SM OVC021 26/23 A3013 RMK AO2 T02600225
KERV 211435Z AUTO 18007KT 10SM BKN019 BKN024 26/23 A3013 RMK AO2 T02610228
KERV 211415Z AUTO 17008KT 10SM SCT021 25/23 A3013 RMK AO2 T02470226
KERV 211355Z AUTO 17008KT 10SM SCT013 BKN017 23/22 A3012 RMK AO2 T02330220
KERV 211335Z AUTO 00000KT 10SM BKN011 23/22 A3012 RMK AO2 T02330221
KERV 211315Z AUTO 00000KT 10SM SCT016 23/22 A3011 RMK AO2 T02330220
KERV 211255Z AUTO 00000KT 10SM BKN016 23/22 A3012 RMK AO2 T02260215
KERV 211235Z AUTO 00000KT 10SM OVC016 23/22 A3011 RMK AO2 T02250215
KERV 211215Z AUTO 00000KT 10SM OVC014 22/21 A3012 RMK AO2 T02210211
KERV 211155Z AUTO 13003KT 10SM BKN014 22/21 A3011 RMK AO2 T02200210 10261 20220
KERV 211135Z AUTO 14003KT 10SM SCT014 22/21 A3011 RMK AO2 T02200210
KERV 211115Z AUTO 00000KT 10SM SCT014 22/21 A3012 RMK AO2 T02210211
KERV 211055Z AUTO 00000KT 10SM SCT016 22/21 A3011 RMK AO2 LTG DSNT NW T02200209
KERV 211035Z AUTO 15003KT 10SM SCT018 22/21 A3012 RMK AO2 T02200208